createdAt,value
2019-05-30T00:02:56.705Z,45.90
2019-05-30T00:07:46.465Z,46.40
2019-05-30T00:12:37.369Z,47.00
2019-05-30T00:17:28.294Z,47.50
2019-05-30T00:22:19.216Z,48.10
2019-05-30T00:27:10.126Z,47.10
2019-05-30T00:32:01.595Z,46.20
2019-05-30T00:36:52.021Z,46.30
2019-05-30T00:41:42.919Z,46.70
2019-05-30T00:46:33.836Z,47.10
2019-05-30T00:51:24.774Z,47.50
2019-05-30T00:56:16.416Z,48.80
2019-05-30T01:01:07.321Z,48.80
2019-05-30T01:05:58.963Z,46.70
2019-05-30T01:10:50.605Z,46.80
2019-05-30T01:15:42.278Z,47.20
2019-05-30T01:20:33.921Z,47.60
2019-05-30T01:25:24.822Z,47.60
2019-05-30T01:30:15.744Z,48.20
2019-05-30T01:35:07.932Z,48.70
2019-05-30T01:39:57.729Z,48.80
2019-05-30T01:44:49.278Z,46.70
2019-05-30T01:49:40.926Z,47.00
2019-05-30T01:54:31.864Z,46.90
2019-05-30T01:59:22.794Z,47.50
2019-05-30T02:04:13.703Z,47.80
2019-05-30T02:09:05.251Z,48.70
2019-05-30T02:13:55.542Z,48.90
2019-05-30T02:18:46.468Z,48.90
2019-05-30T02:23:37.382Z,47.50
2019-05-30T02:28:28.295Z,47.20
2019-05-30T02:33:19.224Z,47.20
2019-05-30T02:38:11.910Z,47.90
2019-05-30T02:43:01.360Z,48.10
2019-05-30T02:47:52.783Z,49.20
2019-05-30T02:52:43.759Z,49.10
2019-05-30T02:57:35.414Z,47.40
2019-05-30T03:02:27.059Z,47.30
2019-05-30T03:07:17.954Z,47.30
2019-05-30T03:12:11.051Z,47.90
2019-05-30T03:16:59.764Z,48.00
2019-05-30T03:21:50.670Z,48.50
2019-05-30T03:26:41.635Z,49.00
2019-05-30T03:31:33.291Z,49.70
2019-05-30T03:36:30.868Z,49.70
2019-05-30T03:41:15.148Z,47.70
2019-05-30T03:46:06.752Z,47.40
2019-05-30T03:50:56.971Z,48.20
2019-05-30T03:55:47.882Z,48.50
2019-05-30T04:00:41.685Z,49.10
2019-05-30T04:05:32.578Z,49.30
2019-05-30T04:10:24.225Z,50.10
2019-05-30T04:15:27.429Z,50.10
2019-05-30T04:20:22.580Z,47.90
2019-05-30T04:25:10.144Z,47.80
2019-05-30T04:30:00.210Z,48.60
2019-05-30T04:34:51.123Z,49.50
2019-05-30T04:39:42.026Z,50.50
2019-05-30T04:44:32.953Z,51.40
2019-05-30T04:49:23.871Z,51.10
2019-05-30T04:54:16.671Z,50.80
2019-05-30T04:59:05.724Z,49.10
2019-05-30T05:03:56.616Z,48.90
2019-05-30T05:08:48.250Z,50.20
2019-05-30T05:13:39.895Z,51.00
2019-05-30T05:18:30.815Z,50.80
2019-05-30T05:23:21.731Z,51.20
2019-05-30T05:28:13.631Z,51.50
2019-05-30T05:33:04.288Z,50.90
2019-05-30T05:37:55.192Z,48.20
2019-05-30T05:42:46.847Z,49.20
2019-05-30T05:47:37.755Z,49.70
2019-05-30T05:52:29.146Z,49.60
2019-05-30T05:57:20.585Z,49.90
2019-05-30T06:02:11.573Z,50.50
2019-05-30T06:07:02.671Z,50.50
2019-05-30T06:11:53.795Z,49.70
2019-05-30T06:16:44.744Z,48.60
2019-05-30T06:21:35.636Z,49.00
2019-05-30T06:26:26.598Z,49.50
2019-05-30T06:31:18.376Z,49.80
2019-05-30T06:36:08.514Z,50.10
2019-05-30T06:40:59.404Z,50.20
2019-05-30T06:45:50.315Z,49.60
2019-05-30T06:50:41.219Z,48.30
2019-05-30T06:55:32.883Z,48.60
2019-05-30T07:00:23.781Z,48.60
2019-05-30T07:05:16.099Z,49.10
2019-05-30T07:10:06.361Z,49.10
2019-05-30T07:14:57.277Z,49.20
2019-05-30T07:19:48.198Z,48.60
2019-05-30T07:24:39.105Z,47.50
2019-05-30T07:29:30.041Z,47.30
2019-05-30T07:34:20.929Z,47.50
2019-05-30T07:39:12.577Z,47.20
2019-05-30T07:44:03.483Z,47.10
2019-05-30T07:48:54.389Z,46.80
2019-05-30T07:53:46.039Z,45.10
2019-05-30T07:58:37.686Z,45.50
2019-05-30T08:03:28.807Z,45.50
2019-05-30T08:08:19.714Z,45.40
2019-05-30T08:13:11.357Z,45.70
2019-05-30T08:18:02.288Z,45.80
2019-05-30T08:22:53.204Z,45.70
2019-05-30T08:27:44.130Z,44.00
2019-05-30T08:32:35.065Z,43.20
2019-05-30T08:37:26.078Z,43.90
2019-05-30T08:42:17.127Z,44.30
2019-05-30T08:47:08.037Z,44.40
2019-05-30T08:51:58.937Z,44.30
2019-05-30T08:56:49.834Z,43.20
2019-05-30T09:01:42.024Z,41.90
2019-05-30T09:06:31.710Z,42.50
2019-05-30T09:11:22.627Z,43.20
2019-05-30T09:16:13.556Z,43.70
2019-05-30T09:21:04.455Z,43.60
2019-05-30T09:25:55.358Z,44.10
2019-05-30T09:30:46.542Z,42.80
2019-05-30T09:35:37.199Z,42.60
2019-05-30T09:40:28.155Z,43.00
2019-05-30T09:45:19.009Z,43.50
2019-05-30T09:50:10.649Z,43.20
2019-05-30T09:55:02.285Z,42.50
2019-05-30T09:59:53.222Z,42.50
2019-05-30T10:04:45.222Z,41.60
2019-05-30T10:09:35.158Z,42.00
2019-05-30T10:14:26.062Z,42.50
2019-05-30T10:19:16.993Z,42.30
2019-05-30T10:24:07.954Z,42.20
2019-05-30T10:28:58.866Z,41.40
2019-05-30T10:33:51.058Z,41.10
2019-05-30T10:38:41.517Z,41.00
2019-05-30T10:43:32.443Z,41.00
2019-05-30T10:48:24.236Z,40.90
2019-05-30T10:53:15.044Z,40.90
2019-05-30T10:58:06.702Z,40.40
2019-05-30T11:02:57.621Z,40.40
2019-05-30T11:08:03.989Z,40.90
2019-05-30T11:12:49.324Z,41.30
2019-05-30T11:17:38.992Z,41.40
2019-05-30T11:22:29.950Z,40.60
2019-05-30T11:27:21.639Z,40.10
2019-05-30T11:32:13.123Z,40.10
2019-05-30T11:37:18.218Z,40.70
2019-05-30T11:41:55.331Z,42.00
2019-05-30T11:46:46.319Z,41.70
2019-05-30T11:51:37.311Z,40.10
2019-05-30T11:56:28.257Z,38.20
2019-05-30T12:01:19.194Z,38.60
2019-05-30T12:06:10.120Z,40.10
2019-05-30T12:11:01.423Z,40.50
2019-05-30T12:15:53.315Z,40.80
2019-05-30T12:20:42.946Z,39.80
2019-05-30T12:25:34.595Z,39.50
2019-05-30T12:30:25.485Z,39.50
2019-05-30T12:35:17.131Z,40.10
2019-05-30T12:40:08.839Z,38.90
2019-05-30T12:44:59.755Z,38.80
2019-05-30T12:49:50.666Z,38.10
2019-05-30T12:54:41.574Z,37.50
2019-05-30T12:59:32.473Z,38.60
2019-05-30T13:04:23.378Z,39.00
2019-05-30T13:09:14.307Z,38.30
2019-05-30T13:14:05.221Z,37.90
2019-05-30T13:18:56.143Z,37.80
2019-05-30T13:23:47.055Z,38.20
2019-05-30T13:28:38.715Z,38.20
2019-05-30T13:33:44.611Z,38.20
2019-05-30T13:38:35.513Z,36.60
2019-05-30T13:43:27.967Z,35.60
2019-05-30T13:48:17.350Z,35.70
2019-05-30T13:53:09.334Z,36.50
2019-05-30T13:57:59.540Z,36.20
2019-05-30T14:02:50.879Z,35.60
2019-05-30T14:07:41.915Z,35.60
2019-05-30T14:12:32.828Z,34.70
2019-05-30T14:17:23.915Z,36.20
2019-05-30T14:22:15.568Z,36.10
2019-05-30T14:27:07.636Z,36.60
2019-05-30T14:31:58.171Z,36.60
2019-05-30T14:36:49.079Z,36.10
2019-05-30T14:41:40.166Z,34.90
2019-05-30T14:46:31.819Z,36.70
2019-05-30T14:51:22.783Z,36.60
2019-05-30T14:56:13.704Z,37.10
2019-05-30T15:01:05.066Z,36.60
2019-05-30T15:05:55.547Z,35.00
2019-05-30T15:10:46.474Z,35.00
2019-05-30T15:15:37.378Z,36.10
2019-05-30T15:20:28.371Z,36.80
2019-05-30T15:25:19.285Z,37.50
2019-05-30T15:30:10.642Z,37.20
2019-05-30T15:35:01.868Z,37.60
2019-05-30T15:39:52.784Z,37.70
2019-05-30T15:44:43.681Z,37.60
2019-05-30T15:49:34.582Z,37.60
2019-05-30T15:54:25.513Z,37.80
2019-05-30T15:59:16.417Z,38.20
2019-05-30T16:04:07.322Z,37.60
2019-05-30T16:08:58.961Z,38.20
2019-05-30T16:13:49.861Z,38.00
2019-05-30T16:18:41.526Z,39.20
2019-05-30T16:23:32.434Z,39.20
2019-05-30T16:28:23.607Z,39.40
2019-05-30T16:33:14.510Z,38.60
2019-05-30T16:38:05.416Z,39.20
2019-05-30T16:42:57.010Z,39.50
2019-05-30T16:47:49.333Z,40.50
2019-05-30T16:52:39.604Z,40.50
2019-05-30T16:57:30.529Z,40.10
2019-05-30T17:02:22.793Z,39.90
2019-05-30T17:07:12.582Z,40.30
2019-05-30T17:44:50.348Z,42.50
2019-05-30T17:49:42.003Z,42.50
2019-05-30T17:54:32.984Z,42.50
2019-05-30T17:59:24.337Z,42.00
2019-05-30T18:04:14.961Z,42.30
2019-05-30T18:09:05.910Z,43.50
2019-05-30T18:13:56.846Z,43.50
2019-05-30T18:18:47.858Z,44.00
2019-05-30T18:23:38.778Z,43.00
2019-05-30T18:28:29.900Z,42.60
2019-05-30T18:33:22.031Z,43.00
2019-05-30T18:38:11.533Z,43.60
2019-05-30T18:43:02.447Z,44.30
2019-05-30T18:47:53.478Z,44.40
2019-05-30T18:52:44.560Z,43.90
2019-05-30T18:57:35.484Z,43.00
2019-05-30T19:02:27.114Z,43.40
2019-05-30T19:07:17.377Z,44.10
2019-05-30T19:12:08.378Z,44.90
2019-05-30T19:16:59.471Z,45.00
2019-05-30T19:21:50.383Z,44.50
2019-05-30T19:26:41.350Z,43.60
2019-05-30T19:31:32.675Z,44.40
2019-05-30T19:36:23.173Z,44.50
2019-05-30T19:41:14.083Z,45.20
2019-05-30T19:46:05.032Z,45.40
2019-05-30T19:50:56.913Z,44.80
2019-05-30T19:55:47.840Z,44.10
2019-05-30T20:00:56.758Z,44.20
2019-05-30T20:05:30.486Z,45.10
2019-05-30T20:10:20.661Z,45.80
2019-05-30T20:15:12.409Z,45.70
2019-05-30T20:20:04.234Z,44.60
2019-05-30T20:24:55.500Z,44.60
2019-05-30T20:29:46.654Z,44.50
2019-05-30T20:34:38.714Z,45.40
2019-05-30T20:39:28.329Z,46.10
2019-05-30T20:44:20.000Z,46.10
2019-05-30T20:49:10.920Z,46.10
2019-05-30T20:54:01.830Z,44.70
2019-05-30T20:58:52.743Z,44.70
2019-05-30T21:03:43.935Z,45.40
2019-05-30T21:08:34.940Z,46.10
2019-05-30T21:13:26.569Z,46.60
2019-05-30T21:18:17.488Z,46.50
2019-05-30T21:23:08.395Z,45.00
2019-05-30T21:27:59.298Z,45.10
2019-05-30T21:32:50.354Z,45.70
2019-05-30T21:37:41.781Z,46.90
2019-05-30T21:42:32.095Z,46.80
2019-05-30T21:47:23.020Z,47.10
2019-05-30T21:52:13.947Z,45.50
2019-05-30T21:57:05.692Z,45.90
2019-05-30T22:01:57.804Z,46.50
2019-05-30T22:06:48.931Z,46.50
2019-05-30T22:11:39.253Z,46.90
2019-05-30T22:16:30.166Z,47.20
2019-05-30T22:21:21.135Z,46.20
2019-05-30T22:26:12.164Z,45.40
2019-05-30T22:31:03.064Z,45.90
2019-05-30T22:35:53.980Z,46.60
2019-05-30T22:40:45.825Z,47.40
2019-05-30T22:45:36.627Z,47.30
2019-05-30T22:50:28.278Z,45.80
2019-05-30T22:55:19.194Z,45.80
2019-05-30T23:00:10.110Z,45.90
2019-05-30T23:05:01.014Z,46.60
2019-05-30T23:09:53.849Z,47.70
2019-05-30T23:14:43.612Z,47.70
2019-05-30T23:19:34.629Z,47.50
2019-05-30T23:24:25.576Z,45.80
2019-05-30T23:29:17.239Z,46.70
2019-05-30T23:34:08.957Z,47.40
2019-05-30T23:38:59.867Z,47.30
2019-05-30T23:44:03.231Z,47.90
2019-05-30T23:48:41.768Z,48.40
2019-05-30T23:53:32.670Z,46.20
2019-05-30T23:58:23.568Z,46.30
